sensor_id;sensor_type;location;lat;lon;timestamp;P1;durP1;ratioP1;P2;durP2;ratioP2
40537;SDS011;27925;41.874;12.526;2023-05-07T00:00:37;7.50;;;6.68;;
40537;SDS011;27925;41.874;12.526;2023-05-07T00:03:03;9.20;;;6.88;;
40537;SDS011;27925;41.874;12.526;2023-05-07T00:05:29;10.65;;;6.57;;
40537;SDS011;27925;41.874;12.526;2023-05-07T00:07:55;9.23;;;7.05;;
40537;SDS011;27925;41.874;12.526;2023-05-07T00:10:21;8.80;;;7.07;;
40537;SDS011;27925;41.874;12.526;2023-05-07T00:12:46;8.60;;;6.53;;
40537;SDS011;27925;41.874;12.526;2023-05-07T00:15:12;9.90;;;7.10;;
40537;SDS011;27925;41.874;12.526;2023-05-07T00:17:38;9.98;;;6.88;;
40537;SDS011;27925;41.874;12.526;2023-05-07T00:20:04;9.93;;;7.15;;
40537;SDS011;27925;41.874;12.526;2023-05-07T00:22:30;8.73;;;6.82;;
40537;SDS011;27925;41.874;12.526;2023-05-07T00:24:57;9.00;;;6.95;;
40537;SDS011;27925;41.874;12.526;2023-05-07T00:27:24;8.80;;;7.50;;
40537;SDS011;27925;41.874;12.526;2023-05-07T00:29:50;11.77;;;7.40;;
40537;SDS011;27925;41.874;12.526;2023-05-07T00:32:16;9.43;;;7.15;;
40537;SDS011;27925;41.874;12.526;2023-05-07T00:34:42;10.15;;;7.53;;
40537;SDS011;27925;41.874;12.526;2023-05-07T00:37:08;9.20;;;7.00;;
40537;SDS011;27925;41.874;12.526;2023-05-07T00:39:34;8.73;;;7.25;;
40537;SDS011;27925;41.874;12.526;2023-05-07T00:42:00;9.00;;;6.90;;
40537;SDS011;27925;41.874;12.526;2023-05-07T00:44:26;8.45;;;7.07;;
40537;SDS011;27925;41.874;12.526;2023-05-07T00:46:53;11.00;;;7.35;;
40537;SDS011;27925;41.874;12.526;2023-05-07T00:49:19;9.25;;;7.50;;
40537;SDS011;27925;41.874;12.526;2023-05-07T00:51:45;10.15;;;6.70;;
40537;SDS011;27925;41.874;12.526;2023-05-07T00:54:12;7.65;;;6.30;;
40537;SDS011;27925;41.874;12.526;2023-05-07T00:56:38;9.77;;;6.78;;
40537;SDS011;27925;41.874;12.526;2023-05-07T00:59:05;7.47;;;6.60;;
40537;SDS011;27925;41.874;12.526;2023-05-07T01:01:31;10.13;;;7.43;;
40537;SDS011;27925;41.874;12.526;2023-05-07T01:03:57;8.32;;;6.97;;
40537;SDS011;27925;41.874;12.526;2023-05-07T01:06:23;8.68;;;7.45;;
40537;SDS011;27925;41.874;12.526;2023-05-07T01:08:50;8.85;;;7.72;;
40537;SDS011;27925;41.874;12.526;2023-05-07T01:11:17;9.35;;;7.78;;
40537;SDS011;27925;41.874;12.526;2023-05-07T01:13:47;9.13;;;7.70;;
40537;SDS011;27925;41.874;12.526;2023-05-07T01:16:13;13.27;;;8.70;;
40537;SDS011;27925;41.874;12.526;2023-05-07T01:18:39;9.35;;;8.10;;
40537;SDS011;27925;41.874;12.526;2023-05-07T01:21:05;9.35;;;8.25;;
40537;SDS011;27925;41.874;12.526;2023-05-07T01:23:32;10.68;;;9.55;;
40537;SDS011;27925;41.874;12.526;2023-05-07T01:25:59;11.35;;;9.38;;
40537;SDS011;27925;41.874;12.526;2023-05-07T01:28:24;11.82;;;9.73;;
40537;SDS011;27925;41.874;12.526;2023-05-07T01:30:52;13.40;;;10.02;;
40537;SDS011;27925;41.874;12.526;2023-05-07T01:33:21;15.10;;;10.38;;
40537;SDS011;27925;41.874;12.526;2023-05-07T01:35:48;12.55;;;10.45;;
40537;SDS011;27925;41.874;12.526;2023-05-07T01:38:18;13.30;;;9.55;;
40537;SDS011;27925;41.874;12.526;2023-05-07T01:40:46;11.88;;;9.63;;
40537;SDS011;27925;41.874;12.526;2023-05-07T01:43:12;10.55;;;9.45;;
40537;SDS011;27925;41.874;12.526;2023-05-07T01:45:38;10.65;;;9.48;;
40537;SDS011;27925;41.874;12.526;2023-05-07T01:48:07;10.55;;;9.25;;
40537;SDS011;27925;41.874;12.526;2023-05-07T01:50:35;9.77;;;8.18;;
40537;SDS011;27925;41.874;12.526;2023-05-07T01:53:02;10.70;;;8.50;;
40537;SDS011;27925;41.874;12.526;2023-05-07T01:55:28;10.32;;;8.40;;
40537;SDS011;27925;41.874;12.526;2023-05-07T01:57:53;10.52;;;9.18;;
40537;SDS011;27925;41.874;12.526;2023-05-07T02:00:19;12.23;;;9.93;;
40537;SDS011;27925;41.874;12.526;2023-05-07T02:02:45;11.63;;;8.70;;
40537;SDS011;27925;41.874;12.526;2023-05-07T02:05:11;10.00;;;8.95;;
40537;SDS011;27925;41.874;12.526;2023-05-07T02:07:36;8.43;;;7.10;;
40537;SDS011;27925;41.874;12.526;2023-05-07T02:10:02;12.15;;;8.98;;
40537;SDS011;27925;41.874;12.526;2023-05-07T02:12:28;11.82;;;9.05;;
40537;SDS011;27925;41.874;12.526;2023-05-07T02:14:54;13.27;;;9.40;;
40537;SDS011;27925;41.874;12.526;2023-05-07T02:17:20;11.07;;;9.23;;
40537;SDS011;27925;41.874;12.526;2023-05-07T02:19:45;10.88;;;9.13;;
40537;SDS011;27925;41.874;12.526;2023-05-07T02:22:11;12.00;;;9.50;;
40537;SDS011;27925;41.874;12.526;2023-05-07T02:24:37;11.27;;;9.35;;
40537;SDS011;27925;41.874;12.526;2023-05-07T02:27:02;10.57;;;8.93;;
40537;SDS011;27925;41.874;12.526;2023-05-07T02:29:28;10.65;;;7.57;;
40537;SDS011;27925;41.874;12.526;2023-05-07T02:31:54;9.88;;;6.57;;
40537;SDS011;27925;41.874;12.526;2023-05-07T02:34:20;11.32;;;6.30;;
40537;SDS011;27925;41.874;12.526;2023-05-07T02:36:46;10.23;;;6.00;;
40537;SDS011;27925;41.874;12.526;2023-05-07T02:39:12;10.73;;;5.95;;
40537;SDS011;27925;41.874;12.526;2023-05-07T02:41:38;7.40;;;5.50;;
40537;SDS011;27925;41.874;12.526;2023-05-07T02:44:04;9.25;;;5.57;;
40537;SDS011;27925;41.874;12.526;2023-05-07T02:46:30;8.40;;;5.28;;
40537;SDS011;27925;41.874;12.526;2023-05-07T02:48:56;7.95;;;5.15;;
40537;SDS011;27925;41.874;12.526;2023-05-07T02:51:22;10.98;;;5.53;;
40537;SDS011;27925;41.874;12.526;2023-05-07T02:53:48;10.45;;;5.85;;
40537;SDS011;27925;41.874;12.526;2023-05-07T02:56:13;8.82;;;5.57;;
40537;SDS011;27925;41.874;12.526;2023-05-07T02:58:39;11.05;;;6.03;;
40537;SDS011;27925;41.874;12.526;2023-05-07T03:01:07;9.93;;;6.30;;
40537;SDS011;27925;41.874;12.526;2023-05-07T03:03:33;9.30;;;6.57;;
40537;SDS011;27925;41.874;12.526;2023-05-07T03:05:59;11.70;;;6.72;;
40537;SDS011;27925;41.874;12.526;2023-05-07T03:08:24;14.02;;;6.55;;
40537;SDS011;27925;41.874;12.526;2023-05-07T03:10:50;9.75;;;6.40;;
40537;SDS011;27925;41.874;12.526;2023-05-07T03:13:16;8.25;;;5.65;;
40537;SDS011;27925;41.874;12.526;2023-05-07T03:15:42;9.73;;;5.95;;
40537;SDS011;27925;41.874;12.526;2023-05-07T03:18:08;8.75;;;5.68;;
40537;SDS011;27925;41.874;12.526;2023-05-07T03:20:33;10.68;;;5.97;;
40537;SDS011;27925;41.874;12.526;2023-05-07T03:22:59;9.45;;;5.38;;
40537;SDS011;27925;41.874;12.526;2023-05-07T03:25:25;7.07;;;5.10;;
40537;SDS011;27925;41.874;12.526;2023-05-07T03:27:51;7.57;;;5.00;;
40537;SDS011;27925;41.874;12.526;2023-05-07T11:58:20;7.03;;;2.40;;
40537;SDS011;27925;41.874;12.526;2023-05-07T12:00:48;6.55;;;2.50;;
40537;SDS011;27925;41.874;12.526;2023-05-07T12:03:14;4.53;;;2.28;;
40537;SDS011;27925;41.874;12.526;2023-05-07T12:05:40;6.47;;;2.17;;
40537;SDS011;27925;41.874;12.526;2023-05-07T12:08:07;3.15;;;1.85;;
40537;SDS011;27925;41.874;12.526;2023-05-07T12:10:32;4.13;;;2.60;;
40537;SDS011;27925;41.874;12.526;2023-05-07T12:12:58;6.35;;;2.20;;
40537;SDS011;27925;41.874;12.526;2023-05-07T12:15:24;3.20;;;2.20;;
40537;SDS011;27925;41.874;12.526;2023-05-07T12:17:49;4.15;;;2.30;;
40537;SDS011;27925;41.874;12.526;2023-05-07T12:20:17;2.33;;;1.73;;
40537;SDS011;27925;41.874;12.526;2023-05-07T12:22:43;5.03;;;2.40;;
40537;SDS011;27925;41.874;12.526;2023-05-07T12:25:09;4.95;;;2.92;;
40537;SDS011;27925;41.874;12.526;2023-05-07T12:27:36;6.32;;;2.45;;
40537;SDS011;27925;41.874;12.526;2023-05-07T12:30:04;5.68;;;2.55;;
40537;SDS011;27925;41.874;12.526;2023-05-07T12:32:30;4.28;;;2.17;;
40537;SDS011;27925;41.874;12.526;2023-05-07T12:35:01;6.25;;;2.70;;
40537;SDS011;27925;41.874;12.526;2023-05-07T12:37:27;8.73;;;2.53;;
40537;SDS011;27925;41.874;12.526;2023-05-07T12:40:05;5.63;;;2.70;;
40537;SDS011;27925;41.874;12.526;2023-05-07T12:42:32;6.05;;;2.20;;
40537;SDS011;27925;41.874;12.526;2023-05-07T12:45:07;5.15;;;2.38;;
40537;SDS011;27925;41.874;12.526;2023-05-07T12:47:33;4.90;;;2.53;;
40537;SDS011;27925;41.874;12.526;2023-05-07T12:49:59;6.63;;;2.20;;
40537;SDS011;27925;41.874;12.526;2023-05-07T12:52:25;7.32;;;2.90;;
40537;SDS011;27925;41.874;12.526;2023-05-07T12:54:51;4.18;;;2.38;;
40537;SDS011;27925;41.874;12.526;2023-05-07T12:57:18;10.40;;;2.80;;
40537;SDS011;27925;41.874;12.526;2023-05-07T12:59:45;8.55;;;2.50;;
40537;SDS011;27925;41.874;12.526;2023-05-07T13:02:11;4.95;;;2.63;;
40537;SDS011;27925;41.874;12.526;2023-05-07T13:04:37;5.63;;;2.33;;
40537;SDS011;27925;41.874;12.526;2023-05-07T13:07:03;5.32;;;2.20;;
40537;SDS011;27925;41.874;12.526;2023-05-07T13:09:28;4.53;;;2.50;;
40537;SDS011;27925;41.874;12.526;2023-05-07T13:11:54;5.60;;;2.03;;
40537;SDS011;27925;41.874;12.526;2023-05-07T13:14:20;3.95;;;1.95;;
40537;SDS011;27925;41.874;12.526;2023-05-07T13:16:49;5.53;;;2.38;;
40537;SDS011;27925;41.874;12.526;2023-05-07T13:19:14;6.90;;;2.42;;
40537;SDS011;27925;41.874;12.526;2023-05-07T13:21:40;12.43;;;4.28;;
40537;SDS011;27925;41.874;12.526;2023-05-07T13:24:06;5.57;;;2.47;;
40537;SDS011;27925;41.874;12.526;2023-05-07T13:26:32;3.30;;;2.10;;
40537;SDS011;27925;41.874;12.526;2023-05-07T13:28:57;5.95;;;2.50;;
40537;SDS011;27925;41.874;12.526;2023-05-07T13:31:23;7.38;;;2.60;;
40537;SDS011;27925;41.874;12.526;2023-05-07T13:33:49;9.20;;;3.75;;
40537;SDS011;27925;41.874;12.526;2023-05-07T13:36:15;10.30;;;2.85;;
40537;SDS011;27925;41.874;12.526;2023-05-07T13:38:41;7.88;;;2.70;;
40537;SDS011;27925;41.874;12.526;2023-05-07T13:41:07;13.15;;;3.97;;
40537;SDS011;27925;41.874;12.526;2023-05-07T13:43:32;8.32;;;3.65;;
40537;SDS011;27925;41.874;12.526;2023-05-07T13:45:58;3.50;;;1.75;;
40537;SDS011;27925;41.874;12.526;2023-05-07T13:48:25;4.18;;;1.92;;
40537;SDS011;27925;41.874;12.526;2023-05-07T13:50:50;3.45;;;1.80;;
40537;SDS011;27925;41.874;12.526;2023-05-07T13:53:16;5.03;;;1.95;;
40537;SDS011;27925;41.874;12.526;2023-05-07T13:55:43;9.18;;;3.50;;
40537;SDS011;27925;41.874;12.526;2023-05-07T13:58:09;8.07;;;3.28;;
40537;SDS011;27925;41.874;12.526;2023-05-07T14:00:35;7.97;;;2.50;;
40537;SDS011;27925;41.874;12.526;2023-05-07T14:03:02;5.65;;;2.72;;
40537;SDS011;27925;41.874;12.526;2023-05-07T14:05:29;7.93;;;2.70;;
40537;SDS011;27925;41.874;12.526;2023-05-07T14:07:55;5.75;;;2.17;;
40537;SDS011;27925;41.874;12.526;2023-05-07T14:10:22;10.15;;;3.28;;
40537;SDS011;27925;41.874;12.526;2023-05-07T14:12:48;4.88;;;1.95;;
40537;SDS011;27925;41.874;12.526;2023-05-07T14:15:13;4.63;;;1.95;;
40537;SDS011;27925;41.874;12.526;2023-05-07T14:17:39;5.30;;;2.38;;
40537;SDS011;27925;41.874;12.526;2023-05-07T14:20:05;9.25;;;3.53;;
40537;SDS011;27925;41.874;12.526;2023-05-07T14:22:32;6.72;;;2.58;;
40537;SDS011;27925;41.874;12.526;2023-05-07T14:24:57;8.02;;;2.70;;
40537;SDS011;27925;41.874;12.526;2023-05-07T14:27:23;3.75;;;2.22;;
40537;SDS011;27925;41.874;12.526;2023-05-07T14:29:49;10.30;;;3.38;;
40537;SDS011;27925;41.874;12.526;2023-05-07T14:32:19;5.38;;;2.47;;
40537;SDS011;27925;41.874;12.526;2023-05-07T14:34:45;4.85;;;2.67;;
40537;SDS011;27925;41.874;12.526;2023-05-07T14:37:11;5.78;;;2.30;;
40537;SDS011;27925;41.874;12.526;2023-05-07T14:39:37;4.63;;;2.13;;
40537;SDS011;27925;41.874;12.526;2023-05-07T14:42:03;3.83;;;2.20;;
40537;SDS011;27925;41.874;12.526;2023-05-07T14:44:29;3.30;;;1.95;;
40537;SDS011;27925;41.874;12.526;2023-05-07T14:46:56;3.60;;;1.92;;
40537;SDS011;27925;41.874;12.526;2023-05-07T14:49:22;3.35;;;1.90;;
40537;SDS011;27925;41.874;12.526;2023-05-07T14:51:47;3.08;;;1.90;;
40537;SDS011;27925;41.874;12.526;2023-05-07T14:54:13;3.58;;;1.80;;
40537;SDS011;27925;41.874;12.526;2023-05-07T14:56:40;8.45;;;2.03;;
40537;SDS011;27925;41.874;12.526;2023-05-07T14:59:06;4.30;;;1.90;;
40537;SDS011;27925;41.874;12.526;2023-05-07T15:01:33;3.75;;;1.83;;
40537;SDS011;27925;41.874;12.526;2023-05-07T15:04:00;4.13;;;2.13;;
40537;SDS011;27925;41.874;12.526;2023-05-07T15:06:26;2.70;;;1.77;;
40537;SDS011;27925;41.874;12.526;2023-05-07T15:08:51;3.10;;;1.90;;
40537;SDS011;27925;41.874;12.526;2023-05-07T15:11:17;3.60;;;1.98;;
40537;SDS011;27925;41.874;12.526;2023-05-07T15:13:43;6.05;;;2.00;;
40537;SDS011;27925;41.874;12.526;2023-05-07T15:16:08;4.05;;;2.10;;
40537;SDS011;27925;41.874;12.526;2023-05-07T15:18:34;5.18;;;2.35;;
40537;SDS011;27925;41.874;12.526;2023-05-07T15:21:00;5.13;;;2.28;;
40537;SDS011;27925;41.874;12.526;2023-05-07T15:23:26;4.38;;;2.15;;
40537;SDS011;27925;41.874;12.526;2023-05-07T15:25:52;4.07;;;2.45;;
40537;SDS011;27925;41.874;12.526;2023-05-07T15:28:18;5.72;;;2.45;;
40537;SDS011;27925;41.874;12.526;2023-05-07T15:30:44;3.28;;;1.80;;
40537;SDS011;27925;41.874;12.526;2023-05-07T15:33:10;3.25;;;2.08;;
40537;SDS011;27925;41.874;12.526;2023-05-07T15:35:36;5.88;;;2.03;;
40537;SDS011;27925;41.874;12.526;2023-05-07T15:38:01;3.97;;;1.98;;
40537;SDS011;27925;41.874;12.526;2023-05-07T15:40:28;4.13;;;2.17;;
40537;SDS011;27925;41.874;12.526;2023-05-07T15:42:54;4.38;;;2.05;;
40537;SDS011;27925;41.874;12.526;2023-05-07T15:45:21;2.72;;;1.65;;
40537;SDS011;27925;41.874;12.526;2023-05-07T15:47:47;3.40;;;1.70;;
40537;SDS011;27925;41.874;12.526;2023-05-07T15:50:13;3.60;;;1.80;;
40537;SDS011;27925;41.874;12.526;2023-05-07T15:52:38;4.05;;;2.05;;
40537;SDS011;27925;41.874;12.526;2023-05-07T15:55:06;3.15;;;1.80;;
40537;SDS011;27925;41.874;12.526;2023-05-07T15:57:33;4.07;;;1.90;;
40537;SDS011;27925;41.874;12.526;2023-05-07T15:59:59;4.95;;;2.08;;
40537;SDS011;27925;41.874;12.526;2023-05-07T16:02:24;3.45;;;1.58;;
40537;SDS011;27925;41.874;12.526;2023-05-07T16:04:50;4.15;;;1.60;;
40537;SDS011;27925;41.874;12.526;2023-05-07T16:07:16;4.30;;;1.60;;
40537;SDS011;27925;41.874;12.526;2023-05-07T16:09:43;5.47;;;1.60;;
40537;SDS011;27925;41.874;12.526;2023-05-07T16:12:09;3.38;;;1.67;;
40537;SDS011;27925;41.874;12.526;2023-05-07T16:14:35;3.33;;;1.33;;
40537;SDS011;27925;41.874;12.526;2023-05-07T16:17:01;3.10;;;1.80;;
40537;SDS011;27925;41.874;12.526;2023-05-07T16:19:27;3.13;;;1.65;;
40537;SDS011;27925;41.874;12.526;2023-05-07T16:21:53;5.75;;;1.60;;
40537;SDS011;27925;41.874;12.526;2023-05-07T16:24:19;4.20;;;2.00;;
40537;SDS011;27925;41.874;12.526;2023-05-07T16:26:44;2.97;;;1.38;;
40537;SDS011;27925;41.874;12.526;2023-05-07T16:29:10;2.25;;;1.50;;
40537;SDS011;27925;41.874;12.526;2023-05-07T16:31:36;3.17;;;2.00;;
40537;SDS011;27925;41.874;12.526;2023-05-07T16:34:02;4.22;;;2.15;;
40537;SDS011;27925;41.874;12.526;2023-05-07T16:36:28;4.28;;;1.80;;
40537;SDS011;27925;41.874;12.526;2023-05-07T16:38:54;4.78;;;2.10;;
40537;SDS011;27925;41.874;12.526;2023-05-07T16:41:20;5.47;;;2.35;;
40537;SDS011;27925;41.874;12.526;2023-05-07T16:43:46;4.53;;;1.83;;
40537;SDS011;27925;41.874;12.526;2023-05-07T16:46:12;5.13;;;1.70;;
40537;SDS011;27925;41.874;12.526;2023-05-07T16:48:38;3.15;;;1.60;;
40537;SDS011;27925;41.874;12.526;2023-05-07T16:51:03;3.60;;;1.90;;
40537;SDS011;27925;41.874;12.526;2023-05-07T16:53:31;3.90;;;1.60;;
40537;SDS011;27925;41.874;12.526;2023-05-07T16:55:57;4.65;;;1.63;;
40537;SDS011;27925;41.874;12.526;2023-05-07T16:58:22;7.75;;;2.67;;
40537;SDS011;27925;41.874;12.526;2023-05-07T17:00:48;5.88;;;2.20;;
40537;SDS011;27925;41.874;12.526;2023-05-07T17:03:14;2.78;;;1.77;;
40537;SDS011;27925;41.874;12.526;2023-05-07T17:05:40;4.20;;;1.85;;
40537;SDS011;27925;41.874;12.526;2023-05-07T17:08:05;5.55;;;2.08;;
40537;SDS011;27925;41.874;12.526;2023-05-07T17:10:31;3.22;;;1.70;;
40537;SDS011;27925;41.874;12.526;2023-05-07T17:12:57;5.28;;;1.98;;
40537;SDS011;27925;41.874;12.526;2023-05-07T17:15:23;4.18;;;2.28;;
40537;SDS011;27925;41.874;12.526;2023-05-07T17:17:48;3.22;;;1.70;;
40537;SDS011;27925;41.874;12.526;2023-05-07T17:20:14;3.17;;;1.55;;
40537;SDS011;27925;41.874;12.526;2023-05-07T17:22:40;2.78;;;1.73;;
40537;SDS011;27925;41.874;12.526;2023-05-07T17:25:06;7.72;;;3.60;;
40537;SDS011;27925;41.874;12.526;2023-05-07T17:27:33;9.63;;;6.85;;
40537;SDS011;27925;41.874;12.526;2023-05-07T17:29:59;5.50;;;2.78;;
40537;SDS011;27925;41.874;12.526;2023-05-07T17:32:24;3.70;;;1.92;;
40537;SDS011;27925;41.874;12.526;2023-05-07T17:34:51;5.43;;;2.03;;
40537;SDS011;27925;41.874;12.526;2023-05-07T17:37:17;4.18;;;2.10;;
40537;SDS011;27925;41.874;12.526;2023-05-07T17:39:42;3.40;;;1.60;;
40537;SDS011;27925;41.874;12.526;2023-05-07T17:42:08;4.18;;;1.70;;
40537;SDS011;27925;41.874;12.526;2023-05-07T17:44:34;3.70;;;1.92;;
40537;SDS011;27925;41.874;12.526;2023-05-07T17:47:00;3.65;;;1.60;;
40537;SDS011;27925;41.874;12.526;2023-05-07T17:49:26;5.35;;;1.88;;
40537;SDS011;27925;41.874;12.526;2023-05-07T17:51:51;3.17;;;1.88;;
40537;SDS011;27925;41.874;12.526;2023-05-07T17:54:17;4.50;;;1.92;;
40537;SDS011;27925;41.874;12.526;2023-05-07T21:25:10;7.28;;;4.82;;
40537;SDS011;27925;41.874;12.526;2023-05-07T21:27:35;12.60;;;6.10;;
40537;SDS011;27925;41.874;12.526;2023-05-07T21:30:01;12.82;;;6.93;;
40537;SDS011;27925;41.874;12.526;2023-05-07T21:32:29;9.82;;;6.18;;
40537;SDS011;27925;41.874;12.526;2023-05-07T21:34:55;9.85;;;5.95;;
40537;SDS011;27925;41.874;12.526;2023-05-07T21:37:21;10.50;;;5.97;;
40537;SDS011;27925;41.874;12.526;2023-05-07T21:39:46;10.35;;;6.15;;
40537;SDS011;27925;41.874;12.526;2023-05-07T21:42:12;9.23;;;5.80;;
40537;SDS011;27925;41.874;12.526;2023-05-07T21:44:37;9.63;;;5.43;;
40537;SDS011;27925;41.874;12.526;2023-05-07T21:47:03;11.30;;;6.28;;
40537;SDS011;27925;41.874;12.526;2023-05-07T21:49:29;11.73;;;5.88;;
40537;SDS011;27925;41.874;12.526;2023-05-07T21:51:54;11.10;;;5.57;;
40537;SDS011;27925;41.874;12.526;2023-05-07T21:54:20;10.82;;;5.88;;
40537;SDS011;27925;41.874;12.526;2023-05-07T21:56:46;9.90;;;5.22;;
40537;SDS011;27925;41.874;12.526;2023-05-07T21:59:12;8.48;;;4.70;;
40537;SDS011;27925;41.874;12.526;2023-05-07T22:01:37;10.23;;;5.13;;
40537;SDS011;27925;41.874;12.526;2023-05-07T22:04:03;9.65;;;5.22;;
40537;SDS011;27925;41.874;12.526;2023-05-07T22:06:29;12.45;;;5.88;;
40537;SDS011;27925;41.874;12.526;2023-05-07T22:08:55;8.90;;;5.50;;
40537;SDS011;27925;41.874;12.526;2023-05-07T22:11:20;9.88;;;4.50;;
40537;SDS011;27925;41.874;12.526;2023-05-07T22:13:46;7.03;;;4.10;;
40537;SDS011;27925;41.874;12.526;2023-05-07T22:16:12;5.55;;;3.20;;
40537;SDS011;27925;41.874;12.526;2023-05-07T22:18:37;7.55;;;4.00;;
40537;SDS011;27925;41.874;12.526;2023-05-07T22:21:03;10.63;;;4.13;;
40537;SDS011;27925;41.874;12.526;2023-05-07T22:23:29;6.80;;;3.78;;
40537;SDS011;27925;41.874;12.526;2023-05-07T22:25:55;8.27;;;3.60;;
40537;SDS011;27925;41.874;12.526;2023-05-07T22:28:20;7.65;;;3.35;;
40537;SDS011;27925;41.874;12.526;2023-05-07T22:30:46;10.43;;;4.00;;
40537;SDS011;27925;41.874;12.526;2023-05-07T22:33:12;7.43;;;4.13;;
40537;SDS011;27925;41.874;12.526;2023-05-07T22:35:37;8.68;;;4.10;;
40537;SDS011;27925;41.874;12.526;2023-05-07T22:38:03;7.85;;;3.78;;
40537;SDS011;27925;41.874;12.526;2023-05-07T22:40:29;12.65;;;3.92;;
40537;SDS011;27925;41.874;12.526;2023-05-07T22:42:54;6.95;;;3.85;;
40537;SDS011;27925;41.874;12.526;2023-05-07T22:45:20;6.88;;;4.00;;
40537;SDS011;27925;41.874;12.526;2023-05-07T22:47:46;6.20;;;3.97;;
40537;SDS011;27925;41.874;12.526;2023-05-07T22:50:12;6.13;;;4.10;;
40537;SDS011;27925;41.874;12.526;2023-05-07T22:52:38;8.38;;;4.22;;
40537;SDS011;27925;41.874;12.526;2023-05-07T22:55:03;7.35;;;3.58;;
40537;SDS011;27925;41.874;12.526;2023-05-07T22:57:29;7.18;;;4.43;;
40537;SDS011;27925;41.874;12.526;2023-05-07T22:59:55;8.77;;;4.28;;
40537;SDS011;27925;41.874;12.526;2023-05-07T23:02:21;8.05;;;4.45;;
40537;SDS011;27925;41.874;12.526;2023-05-07T23:04:47;8.18;;;4.22;;
40537;SDS011;27925;41.874;12.526;2023-05-07T23:07:13;7.70;;;4.50;;
40537;SDS011;27925;41.874;12.526;2023-05-07T23:09:38;8.70;;;4.55;;
40537;SDS011;27925;41.874;12.526;2023-05-07T23:12:04;7.13;;;4.22;;
40537;SDS011;27925;41.874;12.526;2023-05-07T23:14:30;51.75;;;37.10;;
40537;SDS011;27925;41.874;12.526;2023-05-07T23:16:55;9.32;;;6.05;;
40537;SDS011;27925;41.874;12.526;2023-05-07T23:19:21;8.65;;;4.22;;
40537;SDS011;27925;41.874;12.526;2023-05-07T23:21:47;6.10;;;3.95;;
40537;SDS011;27925;41.874;12.526;2023-05-07T23:24:13;8.27;;;4.30;;
40537;SDS011;27925;41.874;12.526;2023-05-07T23:26:39;8.40;;;4.43;;
40537;SDS011;27925;41.874;12.526;2023-05-07T23:29:04;7.45;;;4.53;;
40537;SDS011;27925;41.874;12.526;2023-05-07T23:31:30;8.25;;;4.63;;
40537;SDS011;27925;41.874;12.526;2023-05-07T23:33:56;8.23;;;4.95;;
40537;SDS011;27925;41.874;12.526;2023-05-07T23:36:21;6.55;;;4.75;;
40537;SDS011;27925;41.874;12.526;2023-05-07T23:38:47;8.82;;;4.40;;
40537;SDS011;27925;41.874;12.526;2023-05-07T23:41:13;8.50;;;4.50;;
40537;SDS011;27925;41.874;12.526;2023-05-07T23:43:39;7.72;;;4.15;;
40537;SDS011;27925;41.874;12.526;2023-05-07T23:46:04;9.63;;;5.03;;
40537;SDS011;27925;41.874;12.526;2023-05-07T23:48:30;8.98;;;4.38;;
40537;SDS011;27925;41.874;12.526;2023-05-07T23:50:56;11.48;;;4.25;;
40537;SDS011;27925;41.874;12.526;2023-05-07T23:53:21;6.50;;;4.40;;
40537;SDS011;27925;41.874;12.526;2023-05-07T23:55:47;7.82;;;4.70;;
40537;SDS011;27925;41.874;12.526;2023-05-07T23:58:13;8.85;;;4.43;;
